sensor_id;sensor_type;location;lat;lon;timestamp;temperature;humidity
18948;DHT22;9607;51.600;7.558;2023-05-20T00:01:03;11.70;99.90
18948;DHT22;9607;51.600;7.558;2023-05-20T00:03:30;11.70;99.90
18948;DHT22;9607;51.600;7.558;2023-05-20T00:05:57;11.70;99.90
18948;DHT22;9607;51.600;7.558;2023-05-20T00:08:24;11.70;99.90
18948;DHT22;9607;51.600;7.558;2023-05-20T00:10:51;11.70;99.90
18948;DHT22;9607;51.600;7.558;2023-05-20T00:13:19;11.60;99.90
18948;DHT22;9607;51.600;7.558;2023-05-20T00:15:45;11.60;99.90
18948;DHT22;9607;51.600;7.558;2023-05-20T00:18:12;11.60;99.90
18948;DHT22;9607;51.600;7.558;2023-05-20T00:20:39;11.60;99.90
18948;DHT22;9607;51.600;7.558;2023-05-20T00:23:06;11.60;99.90
18948;DHT22;9607;51.600;7.558;2023-05-20T00:25:33;11.50;99.90
18948;DHT22;9607;51.600;7.558;2023-05-20T00:27:59;11.50;99.90
18948;DHT22;9607;51.600;7.558;2023-05-20T00:30:28;11.50;99.90
18948;DHT22;9607;51.600;7.558;2023-05-20T00:32:55;11.50;99.90
18948;DHT22;9607;51.600;7.558;2023-05-20T00:35:21;11.50;99.90
18948;DHT22;9607;51.600;7.558;2023-05-20T00:37:48;11.50;99.90
18948;DHT22;9607;51.600;7.558;2023-05-20T00:40:15;11.50;99.90
18948;DHT22;9607;51.600;7.558;2023-05-20T00:42:42;11.40;99.90
18948;DHT22;9607;51.600;7.558;2023-05-20T00:45:09;11.40;99.90
18948;DHT22;9607;51.600;7.558;2023-05-20T00:47:38;11.40;99.90
18948;DHT22;9607;51.600;7.558;2023-05-20T00:50:09;11.30;99.90
18948;DHT22;9607;51.600;7.558;2023-05-20T00:52:36;11.30;99.90
18948;DHT22;9607;51.600;7.558;2023-05-20T00:55:04;11.30;99.90
18948;DHT22;9607;51.600;7.558;2023-05-20T00:57:31;11.20;99.90
18948;DHT22;9607;51.600;7.558;2023-05-20T00:59:57;11.20;99.90
18948;DHT22;9607;51.600;7.558;2023-05-20T01:02:24;11.10;99.90
18948;DHT22;9607;51.600;7.558;2023-05-20T01:04:53;11.10;99.90
18948;DHT22;9607;51.600;7.558;2023-05-20T01:07:21;11.10;99.90
18948;DHT22;9607;51.600;7.558;2023-05-20T01:09:49;11.10;99.90
18948;DHT22;9607;51.600;7.558;2023-05-20T01:12:21;11.00;99.90
18948;DHT22;9607;51.600;7.558;2023-05-20T01:14:57;11.00;99.90
18948;DHT22;9607;51.600;7.558;2023-05-20T01:17:26;10.90;99.90
18948;DHT22;9607;51.600;7.558;2023-05-20T01:19:59;10.80;99.90
18948;DHT22;9607;51.600;7.558;2023-05-20T01:22:28;10.70;99.90
18948;DHT22;9607;51.600;7.558;2023-05-20T01:24:54;10.70;99.90
18948;DHT22;9607;51.600;7.558;2023-05-20T01:27:22;10.60;99.90
18948;DHT22;9607;51.600;7.558;2023-05-20T01:29:50;10.60;99.90
18948;DHT22;9607;51.600;7.558;2023-05-20T01:32:20;10.50;99.90
18948;DHT22;9607;51.600;7.558;2023-05-20T01:34:49;10.50;99.90
18948;DHT22;9607;51.600;7.558;2023-05-20T01:37:18;10.40;99.90
18948;DHT22;9607;51.600;7.558;2023-05-20T01:39:48;10.40;99.90
18948;DHT22;9607;51.600;7.558;2023-05-20T01:42:16;10.40;99.90
18948;DHT22;9607;51.600;7.558;2023-05-20T01:44:44;10.40;99.90
18948;DHT22;9607;51.600;7.558;2023-05-20T01:47:12;10.40;99.90
18948;DHT22;9607;51.600;7.558;2023-05-20T01:49:38;10.40;99.90
18948;DHT22;9607;51.600;7.558;2023-05-20T01:52:06;10.30;99.90
18948;DHT22;9607;51.600;7.558;2023-05-20T01:54:32;10.30;99.90
18948;DHT22;9607;51.600;7.558;2023-05-20T01:57:01;10.20;99.90
18948;DHT22;9607;51.600;7.558;2023-05-20T01:59:27;10.20;99.90
18948;DHT22;9607;51.600;7.558;2023-05-20T02:01:54;10.10;99.90
18948;DHT22;9607;51.600;7.558;2023-05-20T02:04:21;10.10;99.90
18948;DHT22;9607;51.600;7.558;2023-05-20T02:06:48;10.10;99.90
18948;DHT22;9607;51.600;7.558;2023-05-20T02:09:15;10.00;99.90
18948;DHT22;9607;51.600;7.558;2023-05-20T02:11:44;10.00;99.90
18948;DHT22;9607;51.600;7.558;2023-05-20T02:14:12;9.90;99.90
18948;DHT22;9607;51.600;7.558;2023-05-20T02:16:39;9.90;99.90
18948;DHT22;9607;51.600;7.558;2023-05-20T02:19:06;9.90;99.90
18948;DHT22;9607;51.600;7.558;2023-05-20T02:21:37;9.90;99.90
18948;DHT22;9607;51.600;7.558;2023-05-20T02:24:04;9.80;99.90
18948;DHT22;9607;51.600;7.558;2023-05-20T02:26:31;9.80;99.90
18948;DHT22;9607;51.600;7.558;2023-05-20T02:28:58;9.70;99.90
18948;DHT22;9607;51.600;7.558;2023-05-20T02:31:27;9.70;99.90
18948;DHT22;9607;51.600;7.558;2023-05-20T02:33:53;9.70;99.90
18948;DHT22;9607;51.600;7.558;2023-05-20T02:36:21;9.60;99.90
18948;DHT22;9607;51.600;7.558;2023-05-20T02:38:47;9.70;99.90
18948;DHT22;9607;51.600;7.558;2023-05-20T02:41:15;9.70;99.90
18948;DHT22;9607;51.600;7.558;2023-05-20T02:43:42;9.70;99.90
18948;DHT22;9607;51.600;7.558;2023-05-20T02:46:10;9.70;99.90
18948;DHT22;9607;51.600;7.558;2023-05-20T02:48:38;9.70;99.90
18948;DHT22;9607;51.600;7.558;2023-05-20T02:51:05;9.70;99.90
18948;DHT22;9607;51.600;7.558;2023-05-20T02:53:32;9.70;99.90
18948;DHT22;9607;51.600;7.558;2023-05-20T02:55:59;9.70;99.90
18948;DHT22;9607;51.600;7.558;2023-05-20T02:58:26;9.70;99.90
18948;DHT22;9607;51.600;7.558;2023-05-20T03:00:53;9.70;99.90
18948;DHT22;9607;51.600;7.558;2023-05-20T03:03:23;9.80;99.90
18948;DHT22;9607;51.600;7.558;2023-05-20T03:05:52;9.70;99.90
18948;DHT22;9607;51.600;7.558;2023-05-20T03:08:20;9.70;99.90
18948;DHT22;9607;51.600;7.558;2023-05-20T03:10:47;9.70;99.90
18948;DHT22;9607;51.600;7.558;2023-05-20T03:13:14;9.70;99.90
18948;DHT22;9607;51.600;7.558;2023-05-20T03:15:41;9.80;99.90
18948;DHT22;9607;51.600;7.558;2023-05-20T03:18:10;9.70;99.90
18948;DHT22;9607;51.600;7.558;2023-05-20T03:20:38;9.70;99.90
18948;DHT22;9607;51.600;7.558;2023-05-20T03:23:07;9.80;99.90
18948;DHT22;9607;51.600;7.558;2023-05-20T03:25:35;9.80;99.90
18948;DHT22;9607;51.600;7.558;2023-05-20T03:28:02;9.80;99.90
18948;DHT22;9607;51.600;7.558;2023-05-20T03:30:30;9.80;99.90
18948;DHT22;9607;51.600;7.558;2023-05-20T03:32:57;9.80;99.90
18948;DHT22;9607;51.600;7.558;2023-05-20T03:35:24;9.80;99.90
18948;DHT22;9607;51.600;7.558;2023-05-20T03:37:51;9.80;99.90
18948;DHT22;9607;51.600;7.558;2023-05-20T03:40:20;9.80;99.90
18948;DHT22;9607;51.600;7.558;2023-05-20T03:42:47;9.70;99.90
18948;DHT22;9607;51.600;7.558;2023-05-20T03:45:15;9.80;99.90
18948;DHT22;9607;51.600;7.558;2023-05-20T03:47:42;9.70;99.90
18948;DHT22;9607;51.600;7.558;2023-05-20T03:50:09;9.70;99.90
18948;DHT22;9607;51.600;7.558;2023-05-20T03:52:36;9.70;99.90
18948;DHT22;9607;51.600;7.558;2023-05-20T03:55:03;9.70;99.90
18948;DHT22;9607;51.600;7.558;2023-05-20T03:57:32;9.70;99.90
18948;DHT22;9607;51.600;7.558;2023-05-20T03:59:59;9.80;99.90
18948;DHT22;9607;51.600;7.558;2023-05-20T04:02:26;9.90;99.90
18948;DHT22;9607;51.600;7.558;2023-05-20T04:04:53;9.90;99.90
18948;DHT22;9607;51.600;7.558;2023-05-20T04:07:22;10.00;99.90
18948;DHT22;9607;51.600;7.558;2023-05-20T04:09:49;10.00;99.90
18948;DHT22;9607;51.600;7.558;2023-05-20T04:12:16;10.10;99.90
18948;DHT22;9607;51.600;7.558;2023-05-20T04:14:46;10.20;99.90
18948;DHT22;9607;51.600;7.558;2023-05-20T04:17:14;10.30;99.90
18948;DHT22;9607;51.600;7.558;2023-05-20T04:19:41;10.30;99.90
18948;DHT22;9607;51.600;7.558;2023-05-20T04:22:09;10.40;99.90
18948;DHT22;9607;51.600;7.558;2023-05-20T04:24:36;10.50;99.90
18948;DHT22;9607;51.600;7.558;2023-05-20T04:27:03;10.50;99.90
18948;DHT22;9607;51.600;7.558;2023-05-20T04:29:30;10.60;99.90
18948;DHT22;9607;51.600;7.558;2023-05-20T04:32:00;10.80;99.90
18948;DHT22;9607;51.600;7.558;2023-05-20T04:34:28;10.90;99.90
18948;DHT22;9607;51.600;7.558;2023-05-20T04:36:55;11.00;99.90
18948;DHT22;9607;51.600;7.558;2023-05-20T04:39:24;11.10;99.90
18948;DHT22;9607;51.600;7.558;2023-05-20T04:41:51;11.30;99.90
18948;DHT22;9607;51.600;7.558;2023-05-20T04:44:19;11.40;99.90
18948;DHT22;9607;51.600;7.558;2023-05-20T04:46:47;11.60;99.90
18948;DHT22;9607;51.600;7.558;2023-05-20T04:49:15;11.70;99.90
18948;DHT22;9607;51.600;7.558;2023-05-20T04:51:42;11.80;99.90
18948;DHT22;9607;51.600;7.558;2023-05-20T04:54:09;12.00;99.90
18948;DHT22;9607;51.600;7.558;2023-05-20T04:56:36;12.10;99.90
18948;DHT22;9607;51.600;7.558;2023-05-20T04:59:03;12.20;99.90
18948;DHT22;9607;51.600;7.558;2023-05-20T05:01:29;12.40;99.90
18948;DHT22;9607;51.600;7.558;2023-05-20T05:03:56;12.50;99.90
18948;DHT22;9607;51.600;7.558;2023-05-20T05:06:24;12.60;99.90
18948;DHT22;9607;51.600;7.558;2023-05-20T05:08:51;12.70;99.90
18948;DHT22;9607;51.600;7.558;2023-05-20T05:11:18;12.80;99.90
18948;DHT22;9607;51.600;7.558;2023-05-20T05:13:45;13.00;99.90
18948;DHT22;9607;51.600;7.558;2023-05-20T05:16:12;13.10;99.90
18948;DHT22;9607;51.600;7.558;2023-05-20T05:18:39;13.10;99.90
18948;DHT22;9607;51.600;7.558;2023-05-20T05:21:07;13.30;99.90
18948;DHT22;9607;51.600;7.558;2023-05-20T05:23:35;13.30;99.90
18948;DHT22;9607;51.600;7.558;2023-05-20T05:26:02;13.30;99.90
18948;DHT22;9607;51.600;7.558;2023-05-20T05:28:29;13.40;99.90
18948;DHT22;9607;51.600;7.558;2023-05-20T05:30:56;13.50;99.90
18948;DHT22;9607;51.600;7.558;2023-05-20T05:33:22;13.50;99.90
18948;DHT22;9607;51.600;7.558;2023-05-20T05:35:50;13.60;99.90
18948;DHT22;9607;51.600;7.558;2023-05-20T05:38:17;13.70;99.90
18948;DHT22;9607;51.600;7.558;2023-05-20T05:40:45;13.80;99.90
18948;DHT22;9607;51.600;7.558;2023-05-20T05:43:12;13.90;99.90
18948;DHT22;9607;51.600;7.558;2023-05-20T05:45:39;14.00;99.90
18948;DHT22;9607;51.600;7.558;2023-05-20T05:48:07;14.00;99.90
18948;DHT22;9607;51.600;7.558;2023-05-20T05:50:34;14.00;99.90
18948;DHT22;9607;51.600;7.558;2023-05-20T05:53:01;14.10;99.90
18948;DHT22;9607;51.600;7.558;2023-05-20T05:55:28;14.10;99.90
18948;DHT22;9607;51.600;7.558;2023-05-20T05:57:56;14.20;99.90
18948;DHT22;9607;51.600;7.558;2023-05-20T06:00:23;14.20;99.90
18948;DHT22;9607;51.600;7.558;2023-05-20T06:02:50;14.10;99.90
18948;DHT22;9607;51.600;7.558;2023-05-20T06:05:17;14.10;99.90
18948;DHT22;9607;51.600;7.558;2023-05-20T06:07:43;14.00;99.90
18948;DHT22;9607;51.600;7.558;2023-05-20T06:10:10;14.00;99.90
18948;DHT22;9607;51.600;7.558;2023-05-20T06:12:37;14.00;99.90
18948;DHT22;9607;51.600;7.558;2023-05-20T06:15:07;14.20;99.90
18948;DHT22;9607;51.600;7.558;2023-05-20T06:17:34;14.40;99.90
18948;DHT22;9607;51.600;7.558;2023-05-20T06:20:01;14.60;99.90
18948;DHT22;9607;51.600;7.558;2023-05-20T06:22:27;14.80;99.90
18948;DHT22;9607;51.600;7.558;2023-05-20T06:24:55;14.90;99.90
18948;DHT22;9607;51.600;7.558;2023-05-20T06:27:25;15.10;99.90
18948;DHT22;9607;51.600;7.558;2023-05-20T06:29:52;15.30;99.90
18948;DHT22;9607;51.600;7.558;2023-05-20T06:32:20;15.50;99.90
18948;DHT22;9607;51.600;7.558;2023-05-20T06:34:47;15.50;99.90
18948;DHT22;9607;51.600;7.558;2023-05-20T06:37:14;15.50;99.90
18948;DHT22;9607;51.600;7.558;2023-05-20T06:39:41;15.40;99.90
18948;DHT22;9607;51.600;7.558;2023-05-20T06:42:08;15.40;99.90
18948;DHT22;9607;51.600;7.558;2023-05-20T06:44:35;15.30;99.90
18948;DHT22;9607;51.600;7.558;2023-05-20T06:47:01;15.30;99.90
18948;DHT22;9607;51.600;7.558;2023-05-20T06:49:30;15.40;99.90
18948;DHT22;9607;51.600;7.558;2023-05-20T06:51:56;15.50;99.90
18948;DHT22;9607;51.600;7.558;2023-05-20T06:54:23;15.60;99.90
18948;DHT22;9607;51.600;7.558;2023-05-20T06:56:50;15.80;99.90
18948;DHT22;9607;51.600;7.558;2023-05-20T06:59:17;16.00;99.90
18948;DHT22;9607;51.600;7.558;2023-05-20T07:01:44;16.20;99.90
18948;DHT22;9607;51.600;7.558;2023-05-20T07:04:11;16.30;99.90
18948;DHT22;9607;51.600;7.558;2023-05-20T07:06:39;16.30;99.90
18948;DHT22;9607;51.600;7.558;2023-05-20T07:09:05;16.30;99.90
18948;DHT22;9607;51.600;7.558;2023-05-20T07:11:33;16.30;99.90
18948;DHT22;9607;51.600;7.558;2023-05-20T07:14:00;16.30;99.90
18948;DHT22;9607;51.600;7.558;2023-05-20T07:16:26;16.20;99.90
18948;DHT22;9607;51.600;7.558;2023-05-20T07:18:54;16.20;99.90
18948;DHT22;9607;51.600;7.558;2023-05-20T07:21:20;16.10;99.90
18948;DHT22;9607;51.600;7.558;2023-05-20T07:23:49;16.20;99.90
18948;DHT22;9607;51.600;7.558;2023-05-20T07:26:15;16.20;99.90
18948;DHT22;9607;51.600;7.558;2023-05-20T07:28:42;16.30;99.90
18948;DHT22;9607;51.600;7.558;2023-05-20T07:31:10;16.40;99.90
18948;DHT22;9607;51.600;7.558;2023-05-20T07:33:37;16.40;99.90
18948;DHT22;9607;51.600;7.558;2023-05-20T07:36:04;16.50;99.90
18948;DHT22;9607;51.600;7.558;2023-05-20T07:38:31;16.50;99.90
18948;DHT22;9607;51.600;7.558;2023-05-20T07:40:59;16.60;99.90
18948;DHT22;9607;51.600;7.558;2023-05-20T07:43:26;16.70;99.90
18948;DHT22;9607;51.600;7.558;2023-05-20T07:45:53;16.90;99.90
18948;DHT22;9607;51.600;7.558;2023-05-20T07:48:20;17.00;99.90
18948;DHT22;9607;51.600;7.558;2023-05-20T07:50:47;17.10;99.90
18948;DHT22;9607;51.600;7.558;2023-05-20T07:53:14;17.20;99.90
18948;DHT22;9607;51.600;7.558;2023-05-20T07:55:41;17.30;99.90
18948;DHT22;9607;51.600;7.558;2023-05-20T07:58:10;17.40;99.90
18948;DHT22;9607;51.600;7.558;2023-05-20T08:00:37;17.40;99.90
18948;DHT22;9607;51.600;7.558;2023-05-20T08:03:03;17.50;99.90
18948;DHT22;9607;51.600;7.558;2023-05-20T08:05:32;17.60;99.90
18948;DHT22;9607;51.600;7.558;2023-05-20T08:07:59;17.60;99.90
18948;DHT22;9607;51.600;7.558;2023-05-20T08:10:25;17.70;99.90
18948;DHT22;9607;51.600;7.558;2023-05-20T08:12:52;17.70;99.90
18948;DHT22;9607;51.600;7.558;2023-05-20T08:15:20;17.80;99.90
18948;DHT22;9607;51.600;7.558;2023-05-20T08:17:47;17.90;99.90
18948;DHT22;9607;51.600;7.558;2023-05-20T08:20:15;18.00;99.90
18948;DHT22;9607;51.600;7.558;2023-05-20T08:22:41;18.00;99.90
18948;DHT22;9607;51.600;7.558;2023-05-20T08:25:09;18.10;99.90
18948;DHT22;9607;51.600;7.558;2023-05-20T08:27:36;18.20;99.90
18948;DHT22;9607;51.600;7.558;2023-05-20T08:30:03;18.20;99.90
18948;DHT22;9607;51.600;7.558;2023-05-20T08:32:32;18.20;99.90
18948;DHT22;9607;51.600;7.558;2023-05-20T08:34:59;18.20;99.90
18948;DHT22;9607;51.600;7.558;2023-05-20T08:37:27;18.20;99.90
18948;DHT22;9607;51.600;7.558;2023-05-20T08:39:54;18.20;99.90
18948;DHT22;9607;51.600;7.558;2023-05-20T08:42:21;18.30;99.90
18948;DHT22;9607;51.600;7.558;2023-05-20T08:44:50;18.40;99.90
18948;DHT22;9607;51.600;7.558;2023-05-20T08:47:18;18.40;99.90
18948;DHT22;9607;51.600;7.558;2023-05-20T08:49:47;18.40;99.90
18948;DHT22;9607;51.600;7.558;2023-05-20T08:52:15;18.40;99.90
18948;DHT22;9607;51.600;7.558;2023-05-20T08:54:44;18.40;99.90
18948;DHT22;9607;51.600;7.558;2023-05-20T08:57:12;18.40;99.60
18948;DHT22;9607;51.600;7.558;2023-05-20T08:59:41;18.40;99.90
18948;DHT22;9607;51.600;7.558;2023-05-20T09:02:08;18.50;99.90
18948;DHT22;9607;51.600;7.558;2023-05-20T09:04:35;18.60;99.90
18948;DHT22;9607;51.600;7.558;2023-05-20T09:07:04;18.60;99.90
18948;DHT22;9607;51.600;7.558;2023-05-20T09:09:32;18.80;99.90
18948;DHT22;9607;51.600;7.558;2023-05-20T09:11:59;18.80;99.70
18948;DHT22;9607;51.600;7.558;2023-05-20T09:14:27;18.90;99.40
18948;DHT22;9607;51.600;7.558;2023-05-20T09:16:54;19.00;99.60
18948;DHT22;9607;51.600;7.558;2023-05-20T09:19:21;19.20;99.30
18948;DHT22;9607;51.600;7.558;2023-05-20T09:21:49;19.40;99.10
18948;DHT22;9607;51.600;7.558;2023-05-20T09:24:22;19.50;98.00
18948;DHT22;9607;51.600;7.558;2023-05-20T09:26:49;19.50;97.40
18948;DHT22;9607;51.600;7.558;2023-05-20T09:29:16;19.70;97.20
18948;DHT22;9607;51.600;7.558;2023-05-20T09:31:44;19.80;96.50
18948;DHT22;9607;51.600;7.558;2023-05-20T09:34:11;19.80;96.40
18948;DHT22;9607;51.600;7.558;2023-05-20T09:36:39;19.90;96.00
18948;DHT22;9607;51.600;7.558;2023-05-20T09:39:11;20.00;95.90
18948;DHT22;9607;51.600;7.558;2023-05-20T09:41:46;20.00;95.90
18948;DHT22;9607;51.600;7.558;2023-05-20T09:44:16;20.00;95.70
18948;DHT22;9607;51.600;7.558;2023-05-20T09:46:44;20.10;95.20
18948;DHT22;9607;51.600;7.558;2023-05-20T09:49:12;20.20;95.30
18948;DHT22;9607;51.600;7.558;2023-05-20T09:51:40;20.20;94.90
18948;DHT22;9607;51.600;7.558;2023-05-20T09:54:08;20.20;94.90
18948;DHT22;9607;51.600;7.558;2023-05-20T09:56:40;20.30;95.10
18948;DHT22;9607;51.600;7.558;2023-05-20T09:59:08;20.40;95.40
18948;DHT22;9607;51.600;7.558;2023-05-20T10:01:36;20.40;94.90
18948;DHT22;9607;51.600;7.558;2023-05-20T10:04:05;20.50;94.30
18948;DHT22;9607;51.600;7.558;2023-05-20T10:06:59;20.60;93.80
18948;DHT22;9607;51.600;7.558;2023-05-20T10:09:41;20.70;94.30
18948;DHT22;9607;51.600;7.558;2023-05-20T10:12:20;21.00;93.70
18948;DHT22;9607;51.600;7.558;2023-05-20T10:14:56;21.20;93.10
18948;DHT22;9607;51.600;7.558;2023-05-20T10:17:34;21.40;93.20
18948;DHT22;9607;51.600;7.558;2023-05-20T10:20:06;21.70;92.50
18948;DHT22;9607;51.600;7.558;2023-05-20T10:22:33;21.90;91.80
18948;DHT22;9607;51.600;7.558;2023-05-20T10:25:05;22.20;91.50
18948;DHT22;9607;51.600;7.558;2023-05-20T10:27:43;22.50;90.50
18948;DHT22;9607;51.600;7.558;2023-05-20T10:30:18;22.60;88.40
18948;DHT22;9607;51.600;7.558;2023-05-20T10:32:51;22.80;89.50
18948;DHT22;9607;51.600;7.558;2023-05-20T10:35:22;23.00;86.60
18948;DHT22;9607;51.600;7.558;2023-05-20T10:37:52;23.10;86.30
18948;DHT22;9607;51.600;7.558;2023-05-20T10:40:21;23.30;87.10
18948;DHT22;9607;51.600;7.558;2023-05-20T10:42:49;23.50;84.50
18948;DHT22;9607;51.600;7.558;2023-05-20T10:45:26;23.70;83.00
18948;DHT22;9607;51.600;7.558;2023-05-20T10:47:54;23.80;79.40
18948;DHT22;9607;51.600;7.558;2023-05-20T10:50:28;23.90;79.10
18948;DHT22;9607;51.600;7.558;2023-05-20T10:53:03;24.00;78.70
18948;DHT22;9607;51.600;7.558;2023-05-20T10:55:35;24.10;76.20
18948;DHT22;9607;51.600;7.558;2023-05-20T10:58:04;24.30;76.70
18948;DHT22;9607;51.600;7.558;2023-05-20T11:00:34;24.30;75.10
18948;DHT22;9607;51.600;7.558;2023-05-20T11:03:02;24.40;73.00
18948;DHT22;9607;51.600;7.558;2023-05-20T11:05:29;24.30;71.80
18948;DHT22;9607;51.600;7.558;2023-05-20T11:08:00;24.30;71.60
18948;DHT22;9607;51.600;7.558;2023-05-20T11:10:28;24.30;70.40
18948;DHT22;9607;51.600;7.558;2023-05-20T11:12:55;24.30;69.80
18948;DHT22;9607;51.600;7.558;2023-05-20T11:15:24;24.40;70.90
18948;DHT22;9607;51.600;7.558;2023-05-20T11:17:52;24.50;69.90
18948;DHT22;9607;51.600;7.558;2023-05-20T11:20:20;24.50;68.40
18948;DHT22;9607;51.600;7.558;2023-05-20T11:22:48;24.40;68.50
18948;DHT22;9607;51.600;7.558;2023-05-20T11:25:15;24.30;68.60
18948;DHT22;9607;51.600;7.558;2023-05-20T11:27:42;24.20;67.70
18948;DHT22;9607;51.600;7.558;2023-05-20T11:30:10;24.10;69.10
18948;DHT22;9607;51.600;7.558;2023-05-20T11:32:39;24.10;69.00
18948;DHT22;9607;51.600;7.558;2023-05-20T11:35:06;24.00;69.00
18948;DHT22;9607;51.600;7.558;2023-05-20T11:37:35;24.00;69.00
18948;DHT22;9607;51.600;7.558;2023-05-20T11:40:03;24.00;70.10
18948;DHT22;9607;51.600;7.558;2023-05-20T11:42:34;23.90;69.40
18948;DHT22;9607;51.600;7.558;2023-05-20T11:45:01;23.80;69.00
18948;DHT22;9607;51.600;7.558;2023-05-20T11:47:28;23.70;70.50
18948;DHT22;9607;51.600;7.558;2023-05-20T11:49:58;23.80;71.50
18948;DHT22;9607;51.600;7.558;2023-05-20T11:52:27;23.80;71.00
18948;DHT22;9607;51.600;7.558;2023-05-20T11:54:54;23.90;70.30
18948;DHT22;9607;51.600;7.558;2023-05-20T11:57:21;23.90;68.90
18948;DHT22;9607;51.600;7.558;2023-05-20T11:59:48;23.90;67.10
18948;DHT22;9607;51.600;7.558;2023-05-20T12:02:15;24.00;68.70
18948;DHT22;9607;51.600;7.558;2023-05-20T12:04:42;24.10;69.10
18948;DHT22;9607;51.600;7.558;2023-05-20T12:07:10;24.10;68.60
18948;DHT22;9607;51.600;7.558;2023-05-20T12:09:39;24.30;67.40
18948;DHT22;9607;51.600;7.558;2023-05-20T12:12:06;24.40;66.50
18948;DHT22;9607;51.600;7.558;2023-05-20T12:14:35;24.40;66.50
18948;DHT22;9607;51.600;7.558;2023-05-20T12:17:02;24.40;66.30
18948;DHT22;9607;51.600;7.558;2023-05-20T12:19:29;24.40;65.90
18948;DHT22;9607;51.600;7.558;2023-05-20T12:21:56;24.40;65.60
18948;DHT22;9607;51.600;7.558;2023-05-20T12:24:24;24.50;65.90
18948;DHT22;9607;51.600;7.558;2023-05-20T12:26:51;24.60;66.20
18948;DHT22;9607;51.600;7.558;2023-05-20T12:29:18;24.70;65.70
18948;DHT22;9607;51.600;7.558;2023-05-20T12:31:45;24.90;65.40
18948;DHT22;9607;51.600;7.558;2023-05-20T12:34:12;25.10;63.40
18948;DHT22;9607;51.600;7.558;2023-05-20T12:36:39;25.00;62.70
18948;DHT22;9607;51.600;7.558;2023-05-20T12:39:05;24.90;62.00
18948;DHT22;9607;51.600;7.558;2023-05-20T12:41:35;24.70;62.10
18948;DHT22;9607;51.600;7.558;2023-05-20T12:44:01;24.50;62.80
18948;DHT22;9607;51.600;7.558;2023-05-20T12:46:28;24.30;64.30
18948;DHT22;9607;51.600;7.558;2023-05-20T12:48:55;24.20;65.30
18948;DHT22;9607;51.600;7.558;2023-05-20T12:51:22;24.10;64.70
18948;DHT22;9607;51.600;7.558;2023-05-20T12:53:49;24.00;64.70
18948;DHT22;9607;51.600;7.558;2023-05-20T12:56:16;24.00;64.50
18948;DHT22;9607;51.600;7.558;2023-05-20T12:58:45;23.90;65.40
18948;DHT22;9607;51.600;7.558;2023-05-20T13:01:11;23.70;65.60
18948;DHT22;9607;51.600;7.558;2023-05-20T13:03:38;23.70;65.50
18948;DHT22;9607;51.600;7.558;2023-05-20T13:06:05;23.80;66.60
18948;DHT22;9607;51.600;7.558;2023-05-20T13:08:32;24.20;65.90
18948;DHT22;9607;51.600;7.558;2023-05-20T13:10:59;24.50;64.10
18948;DHT22;9607;51.600;7.558;2023-05-20T13:13:26;24.50;63.20
18948;DHT22;9607;51.600;7.558;2023-05-20T13:15:54;24.70;63.60
18948;DHT22;9607;51.600;7.558;2023-05-20T13:18:21;24.80;63.40
18948;DHT22;9607;51.600;7.558;2023-05-20T13:20:48;25.10;61.30
18948;DHT22;9607;51.600;7.558;2023-05-20T13:23:15;25.20;60.00
18948;DHT22;9607;51.600;7.558;2023-05-20T13:25:42;25.20;59.10
18948;DHT22;9607;51.600;7.558;2023-05-20T13:28:09;25.20;59.80
18948;DHT22;9607;51.600;7.558;2023-05-20T13:30:37;25.00;59.10
18948;DHT22;9607;51.600;7.558;2023-05-20T13:33:05;24.70;59.20
18948;DHT22;9607;51.600;7.558;2023-05-20T13:35:32;24.40;60.40
18948;DHT22;9607;51.600;7.558;2023-05-20T13:37:59;24.10;62.10
18948;DHT22;9607;51.600;7.558;2023-05-20T13:40:26;23.90;62.70
18948;DHT22;9607;51.600;7.558;2023-05-20T13:42:54;23.60;63.00
18948;DHT22;9607;51.600;7.558;2023-05-20T13:45:20;23.30;64.30
18948;DHT22;9607;51.600;7.558;2023-05-20T13:47:47;23.00;65.90
18948;DHT22;9607;51.600;7.558;2023-05-20T13:50:16;22.70;67.50
18948;DHT22;9607;51.600;7.558;2023-05-20T13:52:42;22.60;68.90
18948;DHT22;9607;51.600;7.558;2023-05-20T13:55:09;22.50;69.10
18948;DHT22;9607;51.600;7.558;2023-05-20T13:57:36;22.40;69.20
18948;DHT22;9607;51.600;7.558;2023-05-20T14:00:04;22.20;70.00
18948;DHT22;9607;51.600;7.558;2023-05-20T14:02:31;22.10;70.80
18948;DHT22;9607;51.600;7.558;2023-05-20T14:04:58;22.00;71.70
18948;DHT22;9607;51.600;7.558;2023-05-20T14:07:26;21.90;71.60
18948;DHT22;9607;51.600;7.558;2023-05-20T14:09:54;21.80;72.80
18948;DHT22;9607;51.600;7.558;2023-05-20T14:12:21;21.80;74.30
18948;DHT22;9607;51.600;7.558;2023-05-20T14:14:48;21.90;75.00
18948;DHT22;9607;51.600;7.558;2023-05-20T14:17:15;22.10;74.70
18948;DHT22;9607;51.600;7.558;2023-05-20T14:19:42;22.40;75.10
18948;DHT22;9607;51.600;7.558;2023-05-20T14:22:09;22.70;74.00
18948;DHT22;9607;51.600;7.558;2023-05-20T14:24:40;22.80;72.00
18948;DHT22;9607;51.600;7.558;2023-05-20T14:27:07;23.00;71.80
18948;DHT22;9607;51.600;7.558;2023-05-20T14:29:34;23.00;70.60
18948;DHT22;9607;51.600;7.558;2023-05-20T14:32:01;23.00;70.80
18948;DHT22;9607;51.600;7.558;2023-05-20T14:34:29;22.90;70.60
18948;DHT22;9607;51.600;7.558;2023-05-20T14:36:56;22.90;70.60
18948;DHT22;9607;51.600;7.558;2023-05-20T14:39:23;23.00;70.60
18948;DHT22;9607;51.600;7.558;2023-05-20T14:41:51;23.30;69.90
18948;DHT22;9607;51.600;7.558;2023-05-20T14:44:18;23.50;69.90
18948;DHT22;9607;51.600;7.558;2023-05-20T14:46:44;23.50;68.20
18948;DHT22;9607;51.600;7.558;2023-05-20T14:49:11;23.40;67.30
18948;DHT22;9607;51.600;7.558;2023-05-20T14:51:38;23.20;68.00
18948;DHT22;9607;51.600;7.558;2023-05-20T14:54:05;23.00;69.10
18948;DHT22;9607;51.600;7.558;2023-05-20T14:56:33;22.80;70.20
18948;DHT22;9607;51.600;7.558;2023-05-20T14:59:01;22.80;71.20
18948;DHT22;9607;51.600;7.558;2023-05-20T15:01:28;22.80;72.60
18948;DHT22;9607;51.600;7.558;2023-05-20T15:03:55;22.80;72.10
18948;DHT22;9607;51.600;7.558;2023-05-20T15:06:22;22.70;71.20
18948;DHT22;9607;51.600;7.558;2023-05-20T15:08:48;22.60;71.20
18948;DHT22;9607;51.600;7.558;2023-05-20T15:11:16;22.50;72.00
18948;DHT22;9607;51.600;7.558;2023-05-20T15:13:43;22.20;72.10
18948;DHT22;9607;51.600;7.558;2023-05-20T15:16:13;22.00;72.60
18948;DHT22;9607;51.600;7.558;2023-05-20T15:18:40;21.80;73.40
18948;DHT22;9607;51.600;7.558;2023-05-20T15:21:07;21.50;74.70
18948;DHT22;9607;51.600;7.558;2023-05-20T15:23:33;21.20;76.50
18948;DHT22;9607;51.600;7.558;2023-05-20T15:26:00;21.00;77.60
18948;DHT22;9607;51.600;7.558;2023-05-20T15:28:27;20.80;78.60
18948;DHT22;9607;51.600;7.558;2023-05-20T15:30:55;20.60;79.80
18948;DHT22;9607;51.600;7.558;2023-05-20T15:33:23;20.50;81.10
18948;DHT22;9607;51.600;7.558;2023-05-20T15:35:50;20.30;82.60
18948;DHT22;9607;51.600;7.558;2023-05-20T15:38:17;20.10;84.10
18948;DHT22;9607;51.600;7.558;2023-05-20T15:40:44;20.10;85.90
18948;DHT22;9607;51.600;7.558;2023-05-20T15:43:11;20.00;87.40
18948;DHT22;9607;51.600;7.558;2023-05-20T15:45:38;19.80;88.50
18948;DHT22;9607;51.600;7.558;2023-05-20T15:48:05;19.70;90.10
18948;DHT22;9607;51.600;7.558;2023-05-20T15:50:34;19.60;90.90